sensor_id;sensor_type;location;lat;lon;timestamp;P1;durP1;ratioP1;P2;durP2;ratioP2
79212;SDS011;68639;52.380;9.822;2024-01-30T00:00:25;23.70;;;14.13;;
79212;SDS011;68639;52.380;9.822;2024-01-30T00:02:50;23.43;;;14.07;;
79212;SDS011;68639;52.380;9.822;2024-01-30T00:05:15;23.27;;;13.30;;
79212;SDS011;68639;52.380;9.822;2024-01-30T00:07:41;21.17;;;13.77;;
79212;SDS011;68639;52.380;9.822;2024-01-30T00:10:06;22.50;;;13.03;;
79212;SDS011;68639;52.380;9.822;2024-01-30T00:12:31;23.33;;;13.80;;
79212;SDS011;68639;52.380;9.822;2024-01-30T00:14:57;23.57;;;14.17;;
79212;SDS011;68639;52.380;9.822;2024-01-30T00:17:22;21.83;;;13.63;;
79212;SDS011;68639;52.380;9.822;2024-01-30T00:19:50;26.50;;;13.63;;
79212;SDS011;68639;52.380;9.822;2024-01-30T00:22:15;22.20;;;14.30;;
79212;SDS011;68639;52.380;9.822;2024-01-30T00:24:40;22.33;;;14.83;;
79212;SDS011;68639;52.380;9.822;2024-01-30T00:27:05;21.03;;;14.67;;
79212;SDS011;68639;52.380;9.822;2024-01-30T00:29:31;22.13;;;14.43;;
79212;SDS011;68639;52.380;9.822;2024-01-30T00:31:58;21.57;;;13.43;;
79212;SDS011;68639;52.380;9.822;2024-01-30T00:34:23;21.47;;;13.43;;
79212;SDS011;68639;52.380;9.822;2024-01-30T00:36:49;21.37;;;13.07;;
79212;SDS011;68639;52.380;9.822;2024-01-30T00:39:14;23.57;;;14.00;;
79212;SDS011;68639;52.380;9.822;2024-01-30T00:41:40;19.43;;;13.03;;
79212;SDS011;68639;52.380;9.822;2024-01-30T00:44:06;23.20;;;13.87;;
79212;SDS011;68639;52.380;9.822;2024-01-30T00:46:31;19.67;;;13.07;;
79212;SDS011;68639;52.380;9.822;2024-01-30T00:48:56;27.90;;;14.63;;
79212;SDS011;68639;52.380;9.822;2024-01-30T00:51:21;26.43;;;15.00;;
79212;SDS011;68639;52.380;9.822;2024-01-30T00:53:47;22.17;;;13.67;;
79212;SDS011;68639;52.380;9.822;2024-01-30T00:56:12;27.47;;;14.80;;
79212;SDS011;68639;52.380;9.822;2024-01-30T00:58:37;25.70;;;13.80;;
79212;SDS011;68639;52.380;9.822;2024-01-30T01:01:02;24.40;;;14.27;;
79212;SDS011;68639;52.380;9.822;2024-01-30T01:03:28;21.33;;;13.63;;
79212;SDS011;68639;52.380;9.822;2024-01-30T01:05:53;26.83;;;14.90;;
79212;SDS011;68639;52.380;9.822;2024-01-30T01:08:18;23.13;;;14.43;;
79212;SDS011;68639;52.380;9.822;2024-01-30T01:10:43;23.43;;;13.20;;
79212;SDS011;68639;52.380;9.822;2024-01-30T01:13:08;25.47;;;15.10;;
79212;SDS011;68639;52.380;9.822;2024-01-30T01:15:34;24.87;;;14.57;;
79212;SDS011;68639;52.380;9.822;2024-01-30T01:17:59;27.00;;;15.03;;
79212;SDS011;68639;52.380;9.822;2024-01-30T01:20:25;26.57;;;15.23;;
79212;SDS011;68639;52.380;9.822;2024-01-30T01:22:50;22.87;;;14.43;;
79212;SDS011;68639;52.380;9.822;2024-01-30T01:25:15;22.00;;;14.00;;
79212;SDS011;68639;52.380;9.822;2024-01-30T01:27:40;20.83;;;14.10;;
79212;SDS011;68639;52.380;9.822;2024-01-30T01:30:10;23.17;;;14.03;;
79212;SDS011;68639;52.380;9.822;2024-01-30T01:32:35;29.30;;;14.87;;
79212;SDS011;68639;52.380;9.822;2024-01-30T01:35:01;23.60;;;14.70;;
79212;SDS011;68639;52.380;9.822;2024-01-30T01:37:27;25.47;;;14.13;;
79212;SDS011;68639;52.380;9.822;2024-01-30T01:39:52;25.90;;;15.43;;
79212;SDS011;68639;52.380;9.822;2024-01-30T01:42:17;21.27;;;14.10;;
79212;SDS011;68639;52.380;9.822;2024-01-30T01:44:42;23.73;;;14.27;;
79212;SDS011;68639;52.380;9.822;2024-01-30T01:47:08;20.23;;;13.17;;
79212;SDS011;68639;52.380;9.822;2024-01-30T01:49:33;23.43;;;14.80;;
79212;SDS011;68639;52.380;9.822;2024-01-30T01:51:58;25.40;;;14.10;;
79212;SDS011;68639;52.380;9.822;2024-01-30T01:54:24;23.73;;;14.10;;
79212;SDS011;68639;52.380;9.822;2024-01-30T01:56:50;24.73;;;13.80;;
79212;SDS011;68639;52.380;9.822;2024-01-30T01:59:16;23.97;;;14.70;;
79212;SDS011;68639;52.380;9.822;2024-01-30T02:01:42;26.33;;;14.13;;
79212;SDS011;68639;52.380;9.822;2024-01-30T02:04:08;22.87;;;13.87;;
79212;SDS011;68639;52.380;9.822;2024-01-30T02:06:34;22.60;;;13.50;;
79212;SDS011;68639;52.380;9.822;2024-01-30T02:08:59;26.30;;;15.57;;
79212;SDS011;68639;52.380;9.822;2024-01-30T02:11:25;26.63;;;14.93;;
79212;SDS011;68639;52.380;9.822;2024-01-30T02:13:50;24.37;;;15.77;;
79212;SDS011;68639;52.380;9.822;2024-01-30T02:16:15;24.67;;;15.00;;
79212;SDS011;68639;52.380;9.822;2024-01-30T02:18:42;25.50;;;15.30;;
79212;SDS011;68639;52.380;9.822;2024-01-30T02:21:10;24.50;;;14.70;;
79212;SDS011;68639;52.380;9.822;2024-01-30T02:23:35;25.63;;;15.60;;
79212;SDS011;68639;52.380;9.822;2024-01-30T02:26:01;24.43;;;15.00;;
79212;SDS011;68639;52.380;9.822;2024-01-30T02:28:26;24.33;;;15.27;;
79212;SDS011;68639;52.380;9.822;2024-01-30T02:30:52;30.33;;;15.57;;
79212;SDS011;68639;52.380;9.822;2024-01-30T02:33:17;21.80;;;14.47;;
79212;SDS011;68639;52.380;9.822;2024-01-30T02:35:43;25.00;;;14.70;;
79212;SDS011;68639;52.380;9.822;2024-01-30T02:38:08;25.23;;;15.53;;
79212;SDS011;68639;52.380;9.822;2024-01-30T02:40:33;24.53;;;14.93;;
79212;SDS011;68639;52.380;9.822;2024-01-30T02:42:59;25.20;;;15.43;;
79212;SDS011;68639;52.380;9.822;2024-01-30T02:45:24;27.13;;;15.23;;
79212;SDS011;68639;52.380;9.822;2024-01-30T02:47:50;23.40;;;15.77;;
79212;SDS011;68639;52.380;9.822;2024-01-30T02:50:15;25.73;;;15.77;;
79212;SDS011;68639;52.380;9.822;2024-01-30T02:52:41;30.37;;;16.00;;
79212;SDS011;68639;52.380;9.822;2024-01-30T02:55:08;25.53;;;15.67;;
79212;SDS011;68639;52.380;9.822;2024-01-30T02:57:34;25.90;;;14.57;;
79212;SDS011;68639;52.380;9.822;2024-01-30T02:59:59;27.50;;;14.70;;
79212;SDS011;68639;52.380;9.822;2024-01-30T03:02:24;25.30;;;14.80;;
79212;SDS011;68639;52.380;9.822;2024-01-30T03:04:49;22.33;;;14.10;;
79212;SDS011;68639;52.380;9.822;2024-01-30T03:07:14;22.67;;;14.93;;
79212;SDS011;68639;52.380;9.822;2024-01-30T03:09:41;24.13;;;14.80;;
79212;SDS011;68639;52.380;9.822;2024-01-30T03:12:06;26.33;;;15.93;;
79212;SDS011;68639;52.380;9.822;2024-01-30T03:14:31;29.60;;;15.53;;
79212;SDS011;68639;52.380;9.822;2024-01-30T03:16:57;26.67;;;15.90;;
79212;SDS011;68639;52.380;9.822;2024-01-30T03:19:22;25.00;;;14.97;;
79212;SDS011;68639;52.380;9.822;2024-01-30T03:21:47;25.80;;;15.70;;
79212;SDS011;68639;52.380;9.822;2024-01-30T03:24:12;25.87;;;14.87;;
79212;SDS011;68639;52.380;9.822;2024-01-30T03:26:38;28.90;;;15.17;;
79212;SDS011;68639;52.380;9.822;2024-01-30T03:29:03;25.77;;;15.80;;
79212;SDS011;68639;52.380;9.822;2024-01-30T03:31:28;23.23;;;14.87;;
79212;SDS011;68639;52.380;9.822;2024-01-30T03:33:53;23.67;;;14.60;;
79212;SDS011;68639;52.380;9.822;2024-01-30T03:36:18;25.67;;;15.87;;
79212;SDS011;68639;52.380;9.822;2024-01-30T03:38:44;25.33;;;15.53;;
79212;SDS011;68639;52.380;9.822;2024-01-30T03:41:09;26.07;;;16.10;;
79212;SDS011;68639;52.380;9.822;2024-01-30T03:43:35;27.37;;;16.27;;
79212;SDS011;68639;52.380;9.822;2024-01-30T03:46:00;27.77;;;14.90;;
79212;SDS011;68639;52.380;9.822;2024-01-30T03:48:26;24.83;;;14.93;;
79212;SDS011;68639;52.380;9.822;2024-01-30T03:50:51;26.10;;;15.23;;
79212;SDS011;68639;52.380;9.822;2024-01-30T03:53:17;25.93;;;14.60;;
79212;SDS011;68639;52.380;9.822;2024-01-30T03:55:42;26.40;;;14.80;;
79212;SDS011;68639;52.380;9.822;2024-01-30T03:58:07;26.10;;;15.00;;
79212;SDS011;68639;52.380;9.822;2024-01-30T04:00:32;23.00;;;14.87;;
79212;SDS011;68639;52.380;9.822;2024-01-30T04:02:57;26.03;;;15.00;;
79212;SDS011;68639;52.380;9.822;2024-01-30T04:05:23;23.33;;;14.63;;
79212;SDS011;68639;52.380;9.822;2024-01-30T04:07:48;26.10;;;15.17;;
79212;SDS011;68639;52.380;9.822;2024-01-30T04:10:13;25.77;;;15.80;;
79212;SDS011;68639;52.380;9.822;2024-01-30T04:12:38;25.47;;;15.77;;
79212;SDS011;68639;52.380;9.822;2024-01-30T04:15:03;23.23;;;15.23;;
79212;SDS011;68639;52.380;9.822;2024-01-30T04:17:29;23.40;;;15.30;;
79212;SDS011;68639;52.380;9.822;2024-01-30T04:19:54;27.97;;;15.60;;
79212;SDS011;68639;52.380;9.822;2024-01-30T04:22:20;26.27;;;14.33;;
79212;SDS011;68639;52.380;9.822;2024-01-30T04:24:45;25.50;;;15.20;;
79212;SDS011;68639;52.380;9.822;2024-01-30T04:27:10;25.00;;;14.93;;
79212;SDS011;68639;52.380;9.822;2024-01-30T04:29:35;23.50;;;14.83;;
79212;SDS011;68639;52.380;9.822;2024-01-30T04:32:00;25.07;;;14.50;;
79212;SDS011;68639;52.380;9.822;2024-01-30T04:34:26;23.67;;;14.23;;
79212;SDS011;68639;52.380;9.822;2024-01-30T04:36:51;26.00;;;14.93;;
79212;SDS011;68639;52.380;9.822;2024-01-30T04:39:16;22.50;;;14.67;;
79212;SDS011;68639;52.380;9.822;2024-01-30T04:41:42;22.37;;;13.67;;
79212;SDS011;68639;52.380;9.822;2024-01-30T04:44:07;29.17;;;15.47;;
79212;SDS011;68639;52.380;9.822;2024-01-30T04:46:32;26.30;;;15.33;;
79212;SDS011;68639;52.380;9.822;2024-01-30T04:48:59;26.13;;;14.37;;
79212;SDS011;68639;52.380;9.822;2024-01-30T04:51:24;26.60;;;14.90;;
79212;SDS011;68639;52.380;9.822;2024-01-30T04:53:49;25.33;;;15.87;;
79212;SDS011;68639;52.380;9.822;2024-01-30T04:56:15;23.03;;;14.63;;
79212;SDS011;68639;52.380;9.822;2024-01-30T04:58:40;26.67;;;14.80;;
79212;SDS011;68639;52.380;9.822;2024-01-30T05:01:05;25.30;;;15.40;;
79212;SDS011;68639;52.380;9.822;2024-01-30T05:03:32;23.10;;;15.97;;
79212;SDS011;68639;52.380;9.822;2024-01-30T05:05:58;24.30;;;16.00;;
79212;SDS011;68639;52.380;9.822;2024-01-30T05:08:23;24.23;;;15.83;;
79212;SDS011;68639;52.380;9.822;2024-01-30T05:10:49;26.27;;;17.30;;
79212;SDS011;68639;52.380;9.822;2024-01-30T05:13:14;28.80;;;16.60;;
79212;SDS011;68639;52.380;9.822;2024-01-30T05:15:39;26.47;;;16.90;;
79212;SDS011;68639;52.380;9.822;2024-01-30T05:18:04;26.87;;;15.63;;
79212;SDS011;68639;52.380;9.822;2024-01-30T05:20:29;25.23;;;16.53;;
79212;SDS011;68639;52.380;9.822;2024-01-30T05:22:55;26.43;;;15.67;;
79212;SDS011;68639;52.380;9.822;2024-01-30T05:25:20;21.80;;;14.63;;
79212;SDS011;68639;52.380;9.822;2024-01-30T05:27:45;25.30;;;16.03;;
79212;SDS011;68639;52.380;9.822;2024-01-30T05:30:11;24.47;;;15.40;;
79212;SDS011;68639;52.380;9.822;2024-01-30T05:32:36;24.00;;;16.30;;
79212;SDS011;68639;52.380;9.822;2024-01-30T05:35:01;22.90;;;15.33;;
79212;SDS011;68639;52.380;9.822;2024-01-30T05:37:27;24.33;;;15.87;;
79212;SDS011;68639;52.380;9.822;2024-01-30T05:39:52;25.53;;;16.07;;
79212;SDS011;68639;52.380;9.822;2024-01-30T05:42:17;23.33;;;16.30;;
79212;SDS011;68639;52.380;9.822;2024-01-30T05:44:42;24.30;;;15.40;;
79212;SDS011;68639;52.380;9.822;2024-01-30T05:47:07;24.50;;;16.60;;
79212;SDS011;68639;52.380;9.822;2024-01-30T05:49:33;24.77;;;15.87;;
79212;SDS011;68639;52.380;9.822;2024-01-30T05:51:58;24.77;;;16.40;;
79212;SDS011;68639;52.380;9.822;2024-01-30T05:54:23;28.93;;;16.77;;
79212;SDS011;68639;52.380;9.822;2024-01-30T05:56:48;26.00;;;16.07;;
79212;SDS011;68639;52.380;9.822;2024-01-30T05:59:13;27.87;;;16.70;;
79212;SDS011;68639;52.380;9.822;2024-01-30T06:01:45;26.70;;;15.77;;
79212;SDS011;68639;52.380;9.822;2024-01-30T06:04:10;28.93;;;16.40;;
79212;SDS011;68639;52.380;9.822;2024-01-30T06:06:35;24.07;;;15.90;;
79212;SDS011;68639;52.380;9.822;2024-01-30T06:09:00;25.93;;;16.47;;
79212;SDS011;68639;52.380;9.822;2024-01-30T06:11:25;26.53;;;15.90;;
79212;SDS011;68639;52.380;9.822;2024-01-30T06:13:50;25.57;;;17.27;;
79212;SDS011;68639;52.380;9.822;2024-01-30T06:16:16;25.60;;;17.03;;
79212;SDS011;68639;52.380;9.822;2024-01-30T06:18:41;26.60;;;17.40;;
79212;SDS011;68639;52.380;9.822;2024-01-30T06:21:06;28.80;;;18.10;;
79212;SDS011;68639;52.380;9.822;2024-01-30T06:23:31;28.67;;;18.37;;
79212;SDS011;68639;52.380;9.822;2024-01-30T06:25:57;27.37;;;17.90;;
79212;SDS011;68639;52.380;9.822;2024-01-30T06:28:22;26.23;;;18.43;;
79212;SDS011;68639;52.380;9.822;2024-01-30T06:30:47;31.00;;;17.80;;
79212;SDS011;68639;52.380;9.822;2024-01-30T06:33:12;31.50;;;17.77;;
79212;SDS011;68639;52.380;9.822;2024-01-30T06:35:38;31.30;;;18.37;;
79212;SDS011;68639;52.380;9.822;2024-01-30T06:38:05;29.90;;;17.83;;
79212;SDS011;68639;52.380;9.822;2024-01-30T06:40:30;28.63;;;17.30;;
79212;SDS011;68639;52.380;9.822;2024-01-30T06:42:55;27.63;;;16.77;;
79212;SDS011;68639;52.380;9.822;2024-01-30T06:45:20;28.00;;;17.37;;
79212;SDS011;68639;52.380;9.822;2024-01-30T06:47:46;27.37;;;15.90;;
79212;SDS011;68639;52.380;9.822;2024-01-30T06:50:11;32.77;;;17.53;;
79212;SDS011;68639;52.380;9.822;2024-01-30T06:52:36;28.87;;;16.23;;
79212;SDS011;68639;52.380;9.822;2024-01-30T06:55:01;27.33;;;15.90;;
79212;SDS011;68639;52.380;9.822;2024-01-30T06:57:26;33.23;;;16.07;;
79212;SDS011;68639;52.380;9.822;2024-01-30T06:59:55;31.47;;;16.53;;
79212;SDS011;68639;52.380;9.822;2024-01-30T07:02:21;28.53;;;16.37;;
79212;SDS011;68639;52.380;9.822;2024-01-30T07:04:46;31.83;;;16.63;;
79212;SDS011;68639;52.380;9.822;2024-01-30T07:07:11;26.67;;;16.97;;
79212;SDS011;68639;52.380;9.822;2024-01-30T07:09:38;28.87;;;16.17;;
79212;SDS011;68639;52.380;9.822;2024-01-30T07:12:03;30.23;;;16.17;;
79212;SDS011;68639;52.380;9.822;2024-01-30T07:14:29;29.83;;;17.27;;
79212;SDS011;68639;52.380;9.822;2024-01-30T07:16:54;26.33;;;15.57;;
79212;SDS011;68639;52.380;9.822;2024-01-30T07:19:19;29.57;;;16.80;;
79212;SDS011;68639;52.380;9.822;2024-01-30T07:21:44;26.97;;;16.30;;
79212;SDS011;68639;52.380;9.822;2024-01-30T07:24:09;28.37;;;16.57;;
79212;SDS011;68639;52.380;9.822;2024-01-30T07:26:34;25.93;;;16.30;;
79212;SDS011;68639;52.380;9.822;2024-01-30T07:29:00;28.13;;;16.23;;
79212;SDS011;68639;52.380;9.822;2024-01-30T07:31:25;29.70;;;16.77;;
79212;SDS011;68639;52.380;9.822;2024-01-30T07:33:51;28.80;;;15.13;;
79212;SDS011;68639;52.380;9.822;2024-01-30T07:36:16;27.93;;;15.43;;
79212;SDS011;68639;52.380;9.822;2024-01-30T07:38:41;25.40;;;15.53;;
79212;SDS011;68639;52.380;9.822;2024-01-30T07:41:06;24.97;;;15.37;;
79212;SDS011;68639;52.380;9.822;2024-01-30T07:43:35;24.77;;;15.53;;
79212;SDS011;68639;52.380;9.822;2024-01-30T07:46:00;25.80;;;15.77;;
79212;SDS011;68639;52.380;9.822;2024-01-30T07:48:27;29.23;;;15.30;;
79212;SDS011;68639;52.380;9.822;2024-01-30T07:50:52;25.07;;;14.90;;
79212;SDS011;68639;52.380;9.822;2024-01-30T07:53:18;23.23;;;14.23;;
79212;SDS011;68639;52.380;9.822;2024-01-30T07:55:43;24.67;;;14.97;;
79212;SDS011;68639;52.380;9.822;2024-01-30T07:58:11;23.27;;;14.77;;
79212;SDS011;68639;52.380;9.822;2024-01-30T08:00:36;26.00;;;14.63;;
79212;SDS011;68639;52.380;9.822;2024-01-30T08:03:02;20.83;;;14.13;;
79212;SDS011;68639;52.380;9.822;2024-01-30T08:05:27;20.70;;;14.07;;
79212;SDS011;68639;52.380;9.822;2024-01-30T08:07:52;21.47;;;14.03;;
79212;SDS011;68639;52.380;9.822;2024-01-30T08:10:18;19.57;;;13.27;;
79212;SDS011;68639;52.380;9.822;2024-01-30T08:12:43;22.07;;;13.10;;
79212;SDS011;68639;52.380;9.822;2024-01-30T08:15:09;24.90;;;13.20;;
79212;SDS011;68639;52.380;9.822;2024-01-30T08:17:34;24.53;;;14.10;;
79212;SDS011;68639;52.380;9.822;2024-01-30T08:19:59;21.83;;;13.63;;
79212;SDS011;68639;52.380;9.822;2024-01-30T08:22:25;20.03;;;14.00;;
79212;SDS011;68639;52.380;9.822;2024-01-30T08:24:50;22.77;;;13.43;;
79212;SDS011;68639;52.380;9.822;2024-01-30T08:27:15;19.43;;;12.77;;
79212;SDS011;68639;52.380;9.822;2024-01-30T08:29:40;20.07;;;12.60;;
79212;SDS011;68639;52.380;9.822;2024-01-30T08:32:06;21.67;;;12.77;;
79212;SDS011;68639;52.380;9.822;2024-01-30T08:34:31;24.50;;;12.67;;
79212;SDS011;68639;52.380;9.822;2024-01-30T08:36:56;22.43;;;12.60;;
79212;SDS011;68639;52.380;9.822;2024-01-30T08:39:22;22.57;;;13.20;;
79212;SDS011;68639;52.380;9.822;2024-01-30T08:41:47;23.93;;;12.60;;
79212;SDS011;68639;52.380;9.822;2024-01-30T08:44:12;19.67;;;12.23;;
79212;SDS011;68639;52.380;9.822;2024-01-30T08:46:37;23.73;;;13.73;;
79212;SDS011;68639;52.380;9.822;2024-01-30T08:49:03;30.10;;;13.23;;
79212;SDS011;68639;52.380;9.822;2024-01-30T08:51:30;19.63;;;12.13;;
79212;SDS011;68639;52.380;9.822;2024-01-30T08:53:56;20.80;;;12.03;;
79212;SDS011;68639;52.380;9.822;2024-01-30T08:56:21;21.37;;;12.57;;
79212;SDS011;68639;52.380;9.822;2024-01-30T08:58:46;19.53;;;12.10;;
79212;SDS011;68639;52.380;9.822;2024-01-30T09:01:12;22.37;;;12.00;;
79212;SDS011;68639;52.380;9.822;2024-01-30T09:03:37;19.10;;;12.43;;
79212;SDS011;68639;52.380;9.822;2024-01-30T09:06:08;21.17;;;12.17;;
79212;SDS011;68639;52.380;9.822;2024-01-30T09:08:33;19.60;;;12.47;;
79212;SDS011;68639;52.380;9.822;2024-01-30T09:10:58;16.63;;;11.43;;
79212;SDS011;68639;52.380;9.822;2024-01-30T09:13:23;21.07;;;13.23;;
79212;SDS011;68639;52.380;9.822;2024-01-30T09:15:49;17.60;;;11.70;;
79212;SDS011;68639;52.380;9.822;2024-01-30T09:18:14;19.73;;;12.47;;
79212;SDS011;68639;52.380;9.822;2024-01-30T09:20:39;21.03;;;12.50;;
79212;SDS011;68639;52.380;9.822;2024-01-30T09:23:04;19.73;;;12.43;;
79212;SDS011;68639;52.380;9.822;2024-01-30T09:25:30;19.10;;;12.20;;
79212;SDS011;68639;52.380;9.822;2024-01-30T09:27:55;22.27;;;12.70;;
79212;SDS011;68639;52.380;9.822;2024-01-30T09:30:20;18.70;;;12.27;;
79212;SDS011;68639;52.380;9.822;2024-01-30T09:32:45;20.10;;;12.03;;
79212;SDS011;68639;52.380;9.822;2024-01-30T09:35:10;21.63;;;12.10;;
79212;SDS011;68639;52.380;9.822;2024-01-30T09:37:35;18.63;;;12.03;;
79212;SDS011;68639;52.380;9.822;2024-01-30T09:40:01;17.13;;;11.87;;
79212;SDS011;68639;52.380;9.822;2024-01-30T09:42:35;22.97;;;12.27;;
79212;SDS011;68639;52.380;9.822;2024-01-30T09:45:01;16.67;;;11.27;;
79212;SDS011;68639;52.380;9.822;2024-01-30T09:47:26;22.37;;;11.70;;
79212;SDS011;68639;52.380;9.822;2024-01-30T09:49:51;16.03;;;11.33;;
79212;SDS011;68639;52.380;9.822;2024-01-30T09:52:17;19.07;;;11.87;;
79212;SDS011;68639;52.380;9.822;2024-01-30T09:54:43;17.27;;;12.20;;
79212;SDS011;68639;52.380;9.822;2024-01-30T09:57:09;17.50;;;11.23;;
79212;SDS011;68639;52.380;9.822;2024-01-30T09:59:36;16.00;;;11.37;;
79212;SDS011;68639;52.380;9.822;2024-01-30T10:02:01;17.87;;;10.83;;
79212;SDS011;68639;52.380;9.822;2024-01-30T10:04:28;18.20;;;11.53;;
79212;SDS011;68639;52.380;9.822;2024-01-30T10:06:53;15.10;;;10.83;;
79212;SDS011;68639;52.380;9.822;2024-01-30T10:09:18;15.37;;;10.20;;
79212;SDS011;68639;52.380;9.822;2024-01-30T10:11:44;20.50;;;10.80;;
79212;SDS011;68639;52.380;9.822;2024-01-30T10:14:09;19.10;;;10.93;;
79212;SDS011;68639;52.380;9.822;2024-01-30T10:16:34;27.13;;;11.97;;
79212;SDS011;68639;52.380;9.822;2024-01-30T10:19:00;21.20;;;11.80;;
79212;SDS011;68639;52.380;9.822;2024-01-30T10:21:25;16.73;;;10.83;;
79212;SDS011;68639;52.380;9.822;2024-01-30T10:23:50;19.40;;;12.00;;
79212;SDS011;68639;52.380;9.822;2024-01-30T10:26:18;25.93;;;11.67;;
79212;SDS011;68639;52.380;9.822;2024-01-30T10:28:43;19.70;;;11.10;;
79212;SDS011;68639;52.380;9.822;2024-01-30T10:31:09;19.57;;;10.87;;
79212;SDS011;68639;52.380;9.822;2024-01-30T10:33:34;31.27;;;12.77;;
79212;SDS011;68639;52.380;9.822;2024-01-30T10:36:03;21.67;;;10.87;;
79212;SDS011;68639;52.380;9.822;2024-01-30T10:38:29;17.57;;;10.47;;
79212;SDS011;68639;52.380;9.822;2024-01-30T10:40:59;15.70;;;10.80;;
79212;SDS011;68639;52.380;9.822;2024-01-30T10:43:31;20.20;;;11.27;;
79212;SDS011;68639;52.380;9.822;2024-01-30T10:45:57;25.53;;;12.03;;
79212;SDS011;68639;52.380;9.822;2024-01-30T10:48:23;21.90;;;11.03;;
79212;SDS011;68639;52.380;9.822;2024-01-30T10:50:51;50.33;;;13.53;;
79212;SDS011;68639;52.380;9.822;2024-01-30T10:53:19;23.47;;;11.10;;
79212;SDS011;68639;52.380;9.822;2024-01-30T10:55:44;19.90;;;10.70;;
79212;SDS011;68639;52.380;9.822;2024-01-30T10:58:11;18.07;;;11.27;;
79212;SDS011;68639;52.380;9.822;2024-01-30T11:00:36;19.90;;;11.10;;
79212;SDS011;68639;52.380;9.822;2024-01-30T11:03:02;16.53;;;10.27;;
79212;SDS011;68639;52.380;9.822;2024-01-30T11:05:28;23.47;;;10.73;;
79212;SDS011;68639;52.380;9.822;2024-01-30T11:07:54;18.23;;;11.00;;
79212;SDS011;68639;52.380;9.822;2024-01-30T11:10:19;16.23;;;10.47;;
79212;SDS011;68639;52.380;9.822;2024-01-30T11:12:45;19.37;;;10.27;;
79212;SDS011;68639;52.380;9.822;2024-01-30T11:15:15;29.93;;;12.10;;
79212;SDS011;68639;52.380;9.822;2024-01-30T11:20:21;17.40;;;11.27;;
79212;SDS011;68639;52.380;9.822;2024-01-30T11:22:48;18.50;;;10.73;;
79212;SDS011;68639;52.380;9.822;2024-01-30T11:25:14;25.83;;;10.97;;
79212;SDS011;68639;52.380;9.822;2024-01-30T11:27:41;48.13;;;13.07;;
79212;SDS011;68639;52.380;9.822;2024-01-30T11:30:06;37.37;;;13.40;;
79212;SDS011;68639;52.380;9.822;2024-01-30T11:32:32;29.63;;;12.23;;
79212;SDS011;68639;52.380;9.822;2024-01-30T11:34:58;22.50;;;11.30;;
79212;SDS011;68639;52.380;9.822;2024-01-30T11:37:24;17.83;;;10.17;;
79212;SDS011;68639;52.380;9.822;2024-01-30T11:39:50;16.93;;;11.00;;
79212;SDS011;68639;52.380;9.822;2024-01-30T11:42:16;18.40;;;11.00;;
79212;SDS011;68639;52.380;9.822;2024-01-30T11:44:45;15.27;;;9.80;;
79212;SDS011;68639;52.380;9.822;2024-01-30T11:47:11;18.50;;;10.97;;
79212;SDS011;68639;52.380;9.822;2024-01-30T11:49:36;17.17;;;10.53;;
79212;SDS011;68639;52.380;9.822;2024-01-30T11:52:01;17.13;;;11.17;;
79212;SDS011;68639;52.380;9.822;2024-01-30T11:54:26;17.10;;;10.77;;
79212;SDS011;68639;52.380;9.822;2024-01-30T11:56:52;18.90;;;10.67;;
79212;SDS011;68639;52.380;9.822;2024-01-30T11:59:17;19.43;;;10.77;;
79212;SDS011;68639;52.380;9.822;2024-01-30T12:01:42;18.13;;;11.43;;
79212;SDS011;68639;52.380;9.822;2024-01-30T12:04:07;16.27;;;10.37;;
79212;SDS011;68639;52.380;9.822;2024-01-30T12:06:34;33.77;;;11.93;;
79212;SDS011;68639;52.380;9.822;2024-01-30T12:08:59;18.47;;;10.80;;
79212;SDS011;68639;52.380;9.822;2024-01-30T12:11:25;17.83;;;10.63;;
79212;SDS011;68639;52.380;9.822;2024-01-30T12:13:51;17.33;;;10.57;;
79212;SDS011;68639;52.380;9.822;2024-01-30T12:16:16;19.27;;;11.10;;
79212;SDS011;68639;52.380;9.822;2024-01-30T12:18:42;14.10;;;9.73;;
79212;SDS011;68639;52.380;9.822;2024-01-30T12:21:07;18.37;;;10.93;;
79212;SDS011;68639;52.380;9.822;2024-01-30T12:23:34;14.13;;;9.80;;
79212;SDS011;68639;52.380;9.822;2024-01-30T12:26:00;19.37;;;10.40;;
79212;SDS011;68639;52.380;9.822;2024-01-30T12:28:26;19.10;;;10.13;;
79212;SDS011;68639;52.380;9.822;2024-01-30T12:30:55;16.37;;;10.23;;
79212;SDS011;68639;52.380;9.822;2024-01-30T12:33:20;18.97;;;10.90;;
79212;SDS011;68639;52.380;9.822;2024-01-30T12:35:46;15.47;;;10.40;;
79212;SDS011;68639;52.380;9.822;2024-01-30T12:38:11;17.50;;;10.63;;
79212;SDS011;68639;52.380;9.822;2024-01-30T12:40:37;15.40;;;9.90;;
79212;SDS011;68639;52.380;9.822;2024-01-30T12:43:02;17.53;;;10.30;;
79212;SDS011;68639;52.380;9.822;2024-01-30T12:45:28;38.43;;;11.40;;
79212;SDS011;68639;52.380;9.822;2024-01-30T12:47:53;16.73;;;10.23;;
79212;SDS011;68639;52.380;9.822;2024-01-30T12:50:18;21.50;;;10.83;;
79212;SDS011;68639;52.380;9.822;2024-01-30T12:52:44;21.13;;;10.17;;
79212;SDS011;68639;52.380;9.822;2024-01-30T12:55:09;15.93;;;10.00;;
79212;SDS011;68639;52.380;9.822;2024-01-30T12:57:34;16.10;;;10.37;;
79212;SDS011;68639;52.380;9.822;2024-01-30T13:00:00;16.80;;;10.30;;
79212;SDS011;68639;52.380;9.822;2024-01-30T13:02:25;16.87;;;10.20;;
79212;SDS011;68639;52.380;9.822;2024-01-30T13:04:52;19.07;;;9.53;;
79212;SDS011;68639;52.380;9.822;2024-01-30T13:07:17;15.63;;;9.10;;
79212;SDS011;68639;52.380;9.822;2024-01-30T13:09:42;14.33;;;9.37;;
79212;SDS011;68639;52.380;9.822;2024-01-30T13:12:08;14.40;;;9.80;;
79212;SDS011;68639;52.380;9.822;2024-01-30T13:14:33;16.43;;;10.13;;
79212;SDS011;68639;52.380;9.822;2024-01-30T13:16:58;15.73;;;9.63;;
79212;SDS011;68639;52.380;9.822;2024-01-30T13:19:23;14.93;;;9.63;;
79212;SDS011;68639;52.380;9.822;2024-01-30T13:21:49;20.90;;;10.40;;
79212;SDS011;68639;52.380;9.822;2024-01-30T13:24:14;24.23;;;10.97;;
79212;SDS011;68639;52.380;9.822;2024-01-30T13:26:39;17.83;;;10.50;;
79212;SDS011;68639;52.380;9.822;2024-01-30T13:29:05;18.97;;;10.80;;
79212;SDS011;68639;52.380;9.822;2024-01-30T13:31:30;37.47;;;11.63;;
79212;SDS011;68639;52.380;9.822;2024-01-30T13:33:55;35.07;;;11.30;;
79212;SDS011;68639;52.380;9.822;2024-01-30T13:36:20;19.23;;;10.27;;
79212;SDS011;68639;52.380;9.822;2024-01-30T13:38:46;17.33;;;10.57;;
79212;SDS011;68639;52.380;9.822;2024-01-30T13:41:11;15.93;;;9.40;;
79212;SDS011;68639;52.380;9.822;2024-01-30T13:43:37;15.23;;;9.67;;
79212;SDS011;68639;52.380;9.822;2024-01-30T13:46:02;14.50;;;9.03;;
79212;SDS011;68639;52.380;9.822;2024-01-30T13:48:28;18.67;;;9.47;;
79212;SDS011;68639;52.380;9.822;2024-01-30T13:50:54;15.60;;;9.70;;
79212;SDS011;68639;52.380;9.822;2024-01-30T13:53:20;14.40;;;9.00;;
79212;SDS011;68639;52.380;9.822;2024-01-30T13:55:45;14.23;;;9.00;;
79212;SDS011;68639;52.380;9.822;2024-01-30T13:58:10;15.87;;;9.80;;
79212;SDS011;68639;52.380;9.822;2024-01-30T14:00:35;18.67;;;9.87;;
79212;SDS011;68639;52.380;9.822;2024-01-30T14:03:01;19.10;;;9.17;;
79212;SDS011;68639;52.380;9.822;2024-01-30T14:05:26;19.43;;;9.73;;
79212;SDS011;68639;52.380;9.822;2024-01-30T14:07:54;15.97;;;8.90;;
79212;SDS011;68639;52.380;9.822;2024-01-30T14:10:19;16.50;;;9.10;;
79212;SDS011;68639;52.380;9.822;2024-01-30T14:12:45;17.97;;;9.30;;
79212;SDS011;68639;52.380;9.822;2024-01-30T14:15:10;17.27;;;9.53;;